Port Wing, Wisconsin
Current Conditions -  °F | °C
As of 5:14 PM on Wednesday 22 Oct 2014 (Local Time) from KTWM Reporting Station
Thunderstorm Thunderstorm  
Wind Chill: 55°   Ceiling: 3700
Heat Index: 55°   Visibility: 10mi
Dew Point: 28°   Wind: 9mph
Humidity: 36%   Direction: 80°E
Pressure: 30.05"   Gusts: NA
Location:  46.77°N, 91.39°W
Report Text: KTWM 222214Z AUTO 08008KT 10SM VCTS BKN037 13/M02 A3005 RMK AO2 LTG DSNT NE
Loading
Personal Weather Stations






























Interactive Weather Map
Tropical Storm Tracking
New forecast layout! Learn more

10-Day Weather Forecast

Advertisements
Track Severe Weather on mobile